createdAt,value
2018-11-21T00:00:33.525Z,22.23
2018-11-21T00:06:05.123Z,20.60
2018-11-21T00:08:54.868Z,21.47
2018-11-21T00:14:26.630Z,21.70
2018-11-21T00:17:16.339Z,21.67
2018-11-21T00:20:07.506Z,22.83
2018-11-21T00:23:16.652Z,23.20
2018-11-21T00:26:06.653Z,21.70
2018-11-21T00:28:56.358Z,24.17
2018-11-21T00:31:46.057Z,22.67
2018-11-21T00:37:18.672Z,23.40
2018-11-21T00:40:47.014Z,22.50
2018-11-21T00:43:17.047Z,22.97
2018-11-21T00:48:29.956Z,23.73
2018-11-21T00:59:29.080Z,24.03
2018-11-21T01:02:18.766Z,22.87
2018-11-21T01:05:08.494Z,24.00
2018-11-21T01:08:18.815Z,25.60
2018-11-21T01:16:31.428Z,25.90
2018-11-21T01:19:21.147Z,24.60
2018-11-21T01:22:10.832Z,23.27
2018-11-21T01:25:00.483Z,25.43
2018-11-21T01:28:09.845Z,22.00
2018-11-21T01:31:07.885Z,24.63
2018-11-21T01:36:22.064Z,24.33
2018-11-21T01:39:12.140Z,22.40
2018-11-21T01:50:11.213Z,22.13
2018-11-21T01:53:00.872Z,24.77
2018-11-21T01:55:50.558Z,23.33
2018-11-21T02:01:23.142Z,21.93
2018-11-21T02:04:12.820Z,22.90
2018-11-21T02:07:02.519Z,24.10
2018-11-21T02:09:52.182Z,22.50
2018-11-21T02:15:06.420Z,23.60
2018-11-21T02:18:16.469Z,24.70
2018-11-21T02:21:06.142Z,25.90
2018-11-21T02:26:40.129Z,25.03
2018-11-21T02:32:11.259Z,25.43
2018-11-21T02:40:31.338Z,27.10
2018-11-21T02:54:11.481Z,28.00
2018-11-21T02:57:22.428Z,28.30
2018-11-21T03:00:46.709Z,27.27
2018-11-21T03:06:18.354Z,29.07
2018-11-21T03:09:08.407Z,26.47
2018-11-21T03:11:58.184Z,27.00
2018-11-21T03:14:47.901Z,28.23
2018-11-21T03:17:37.592Z,29.30
2018-11-21T03:20:39.208Z,26.37
2018-11-21T03:31:17.516Z,30.10
2018-11-21T03:33:47.777Z,28.70
2018-11-21T03:39:22.755Z,27.50
2018-11-21T03:42:12.469Z,28.30
2018-11-21T03:45:02.136Z,25.87
2018-11-21T03:50:54.101Z,28.93
2018-11-21T03:53:43.769Z,30.50
2018-11-21T04:02:00.708Z,30.57
2018-11-21T04:10:37.575Z,28.37
2018-11-21T04:13:27.264Z,27.07
2018-11-21T04:16:16.957Z,27.97
2018-11-21T04:19:06.678Z,30.30
2018-11-21T04:21:56.359Z,27.63
2018-11-21T04:24:46.022Z,26.83
2018-11-21T04:27:35.817Z,25.37
2018-11-21T04:30:25.498Z,25.67
2018-11-21T04:33:15.979Z,25.93
2018-11-21T04:36:06.316Z,26.93
2018-11-21T04:38:56.151Z,28.50
2018-11-21T04:41:45.840Z,28.20
2018-11-21T04:44:35.627Z,26.90
2018-11-21T04:47:25.399Z,29.50
2018-11-21T04:50:36.279Z,27.40
2018-11-21T04:53:26.341Z,26.87
2018-11-21T05:01:43.385Z,27.03
2018-11-21T05:15:44.790Z,25.10
2018-11-21T05:18:34.609Z,23.93
2018-11-21T05:21:24.275Z,25.50
2018-11-21T05:29:21.016Z,24.60
2018-11-21T05:40:37.294Z,27.23
2018-11-21T05:43:26.965Z,24.23
2018-11-21T05:49:00.622Z,25.70
2018-11-21T05:54:32.233Z,24.90
2018-11-21T05:59:45.158Z,23.67
2018-11-21T06:02:34.924Z,27.00
2018-11-21T06:05:44.037Z,26.43
2018-11-21T06:14:01.520Z,27.43
2018-11-21T06:19:34.137Z,26.97
2018-11-21T06:25:08.135Z,29.90
2018-11-21T06:30:42.573Z,28.43
2018-11-21T06:36:15.410Z,29.30
2018-11-21T06:41:49.450Z,30.83
2018-11-21T06:44:39.216Z,30.47
2018-11-21T06:47:28.957Z,28.37
2018-11-21T06:50:31.682Z,30.23
2018-11-21T06:53:02.001Z,27.63
2018-11-21T06:55:51.625Z,25.87
2018-11-21T06:58:41.406Z,26.10
2018-11-21T07:01:31.272Z,22.83
2018-11-21T07:04:20.982Z,25.77
2018-11-21T07:12:36.381Z,24.07
2018-11-21T07:15:38.432Z,23.57
2018-11-21T07:18:10.591Z,26.67
2018-11-21T07:21:00.826Z,27.07
2018-11-21T07:23:50.534Z,28.50
2018-11-21T07:37:33.720Z,26.03
2018-11-21T07:40:35.866Z,26.10
2018-11-21T07:43:07.601Z,27.47
2018-11-21T07:51:24.660Z,27.83
2018-11-21T07:53:54.850Z,27.67
2018-11-21T07:57:23.222Z,28.47
2018-11-21T08:00:52.896Z,29.80
2018-11-21T08:03:23.982Z,27.20
2018-11-21T08:09:07.971Z,27.53
2018-11-21T08:12:16.683Z,27.47
2018-11-21T08:18:35.816Z,27.90
2018-11-21T08:24:24.106Z,26.53
2018-11-21T08:35:37.286Z,26.50
2018-11-21T08:49:38.736Z,24.13
2018-11-21T08:57:38.958Z,28.03
2018-11-21T09:00:11.824Z,27.30
2018-11-21T09:03:21.485Z,24.10
2018-11-21T09:06:11.254Z,26.47
2018-11-21T09:11:43.436Z,26.27
2018-11-21T09:14:33.109Z,27.30
2018-11-21T09:17:25.811Z,26.07
2018-11-21T09:20:34.579Z,22.03
2018-11-21T09:23:24.277Z,23.40
2018-11-21T09:26:13.951Z,21.70
2018-11-21T09:29:03.648Z,22.53
2018-11-21T09:31:53.353Z,22.03
2018-11-21T09:40:14.414Z,23.67
2018-11-21T09:43:04.213Z,23.20
2018-11-21T09:54:01.865Z,22.33
2018-11-21T09:56:51.461Z,23.37
2018-11-21T09:59:41.169Z,24.00
2018-11-21T10:03:09.889Z,20.43
2018-11-21T10:06:20.273Z,21.90
2018-11-21T10:14:33.723Z,25.80
2018-11-21T10:20:07.734Z,25.47
2018-11-21T10:25:41.202Z,23.00
2018-11-21T10:28:30.881Z,25.40
2018-11-21T10:31:20.564Z,23.10
2018-11-21T10:34:11.986Z,23.70
2018-11-21T10:37:01.844Z,25.37
2018-11-21T10:39:52.665Z,24.10
2018-11-21T10:43:07.429Z,25.97
2018-11-21T10:45:58.775Z,26.13
2018-11-21T10:48:48.447Z,26.10
2018-11-21T10:54:21.362Z,27.00
2018-11-21T10:57:11.034Z,26.87
2018-11-21T11:00:00.710Z,28.80
2018-11-21T11:03:29.568Z,27.80
2018-11-21T11:06:18.870Z,26.27
2018-11-21T11:09:30.147Z,27.17
2018-11-21T11:12:39.069Z,25.70
2018-11-21T11:16:32.164Z,26.57
2018-11-21T11:19:33.680Z,26.93
2018-11-21T11:22:43.290Z,27.07
2018-11-21T11:25:35.081Z,26.37
2018-11-21T11:28:26.686Z,27.10
2018-11-21T11:37:02.580Z,30.57
2018-11-21T11:40:11.324Z,27.27
2018-11-21T11:43:20.060Z,26.70
2018-11-21T11:46:28.831Z,26.37
2018-11-21T11:49:37.615Z,36.93
2018-11-21T11:52:46.348Z,29.93
2018-11-21T11:55:58.944Z,32.20
2018-11-21T11:58:49.892Z,28.00
2018-11-21T12:01:58.783Z,26.50
2018-11-21T12:10:12.885Z,26.43
2018-11-21T12:13:21.686Z,24.80
2018-11-21T12:16:30.615Z,27.57
2018-11-21T12:22:23.844Z,28.27
2018-11-21T12:25:53.779Z,25.43
2018-11-21T12:29:02.757Z,26.90
2018-11-21T12:34:54.045Z,26.30
2018-11-21T12:38:22.271Z,27.37
2018-11-21T12:44:14.432Z,22.80
2018-11-21T12:58:14.599Z,24.57
2018-11-21T13:01:23.337Z,26.07
2018-11-21T13:04:32.106Z,24.33
2018-11-21T13:13:10.491Z,25.47
2018-11-21T13:16:19.222Z,26.07
2018-11-21T13:27:36.183Z,25.80
2018-11-21T13:30:32.212Z,27.00
2018-11-21T13:36:10.522Z,25.60
2018-11-21T13:50:10.647Z,25.77
2018-11-21T13:53:26.669Z,26.47
2018-11-21T14:04:25.292Z,26.10
2018-11-21T14:07:01.685Z,26.93
2018-11-21T14:09:51.640Z,27.47
2018-11-21T14:12:41.547Z,26.50
2018-11-21T14:15:45.497Z,25.30
2018-11-21T14:18:16.413Z,26.20
2018-11-21T14:45:53.236Z,28.70
2018-11-21T14:48:24.633Z,27.40
2018-11-21T14:51:17.002Z,26.27
2018-11-21T14:54:07.407Z,26.80
2018-11-21T14:56:57.338Z,27.10
2018-11-21T14:59:47.495Z,28.73
2018-11-21T15:05:33.277Z,29.27
2018-11-21T15:08:16.899Z,43.93
2018-11-21T15:10:49.750Z,35.80
2018-11-21T15:13:39.475Z,26.10
2018-11-21T15:16:29.454Z,24.70
2018-11-21T15:19:19.199Z,23.90
2018-11-21T15:22:09.165Z,24.20
2018-11-21T15:24:59.186Z,22.47
2018-11-21T15:28:08.874Z,21.40
2018-11-21T15:33:44.209Z,24.70
2018-11-21T15:36:33.999Z,26.13
2018-11-21T15:39:23.736Z,29.30
2018-11-21T15:42:13.607Z,28.70
2018-11-21T15:45:04.412Z,28.83
2018-11-21T15:50:47.360Z,30.13
2018-11-21T15:53:29.755Z,29.87
2018-11-21T15:56:39.440Z,32.17
2018-11-21T15:59:29.358Z,32.00
2018-11-21T16:05:01.710Z,33.40
2018-11-21T16:08:11.175Z,34.50
2018-11-21T16:11:01.090Z,36.67
2018-11-21T16:13:50.859Z,36.80
2018-11-21T16:16:40.760Z,36.53
2018-11-21T16:19:10.799Z,40.40
2018-11-21T16:21:46.549Z,41.23
2018-11-21T16:24:36.576Z,41.77
2018-11-21T16:27:26.506Z,41.93
2018-11-21T16:30:56.265Z,41.40
2018-11-21T16:36:28.211Z,40.13
2018-11-21T16:39:18.183Z,39.07
2018-11-21T16:41:54.185Z,39.37
2018-11-21T16:44:43.970Z,40.20
2018-11-21T16:50:36.175Z,40.00
2018-11-21T16:53:46.236Z,38.70
2018-11-21T16:56:36.047Z,39.80
2018-11-21T16:59:31.414Z,42.50
2018-11-21T17:05:45.848Z,41.97
2018-11-21T17:08:16.188Z,44.40
2018-11-21T17:11:06.092Z,42.10
2018-11-21T17:13:55.989Z,42.47
2018-11-21T17:24:54.304Z,45.53
2018-11-21T17:30:58.284Z,49.37
2018-11-21T17:33:31.903Z,46.67
2018-11-21T17:36:34.032Z,45.70
2018-11-21T17:39:10.257Z,48.40
2018-11-21T17:42:00.174Z,48.80
2018-11-21T17:44:50.107Z,47.67
2018-11-21T17:50:42.958Z,47.10
2018-11-21T17:53:32.742Z,46.07
2018-11-21T17:56:22.452Z,44.30
2018-11-21T17:58:52.923Z,45.30
2018-11-21T18:07:12.867Z,43.73
2018-11-21T18:10:02.864Z,42.73
2018-11-21T18:24:05.705Z,48.20
2018-11-21T18:26:55.531Z,44.80
2018-11-21T18:32:28.456Z,43.70
2018-11-21T18:35:38.896Z,44.90
2018-11-21T18:41:37.009Z,41.83
2018-11-21T18:44:47.391Z,43.17
2018-11-21T18:47:37.590Z,41.80
2018-11-21T18:50:39.936Z,44.07
2018-11-21T18:56:33.371Z,46.40
2018-11-21T18:59:47.594Z,41.23
2018-11-21T19:05:33.013Z,41.10
2018-11-21T19:08:06.053Z,42.00
2018-11-21T19:10:55.984Z,41.53
2018-11-21T19:13:45.834Z,42.03
2018-11-21T19:16:35.648Z,40.27
2018-11-21T19:19:25.417Z,40.60
2018-11-21T19:22:15.463Z,42.00
2018-11-21T19:27:54.159Z,41.80
2018-11-21T19:30:56.319Z,42.23
2018-11-21T19:36:11.683Z,43.10
2018-11-21T19:39:01.631Z,39.40
2018-11-21T19:47:17.885Z,42.27
2018-11-21T19:50:00.844Z,41.03
2018-11-21T19:53:10.457Z,41.43
2018-11-21T20:01:27.768Z,41.83
2018-11-21T20:07:02.389Z,38.90
2018-11-21T20:09:52.293Z,38.33
2018-11-21T20:12:42.700Z,41.73
2018-11-21T20:15:37.239Z,38.90
2018-11-21T20:18:26.922Z,42.57
2018-11-21T20:21:17.808Z,42.00
2018-11-21T20:24:07.380Z,41.70
2018-11-21T20:26:57.287Z,39.70
2018-11-21T20:38:25.203Z,42.10
2018-11-21T20:41:15.253Z,41.27
2018-11-21T20:46:49.321Z,40.43
2018-11-21T20:49:39.214Z,40.53
2018-11-21T20:57:57.363Z,42.50
2018-11-21T21:00:47.276Z,42.77
2018-11-21T21:03:23.740Z,41.67
2018-11-21T21:06:14.381Z,41.10
2018-11-21T21:17:14.262Z,41.13
2018-11-21T21:20:04.957Z,44.17
2018-11-21T21:23:15.026Z,42.07
2018-11-21T21:26:05.252Z,46.53
2018-11-21T21:28:55.318Z,44.07
2018-11-21T21:34:27.288Z,45.40
2018-11-21T21:37:29.714Z,42.37
2018-11-21T21:40:02.234Z,44.50
2018-11-21T21:43:12.072Z,45.03
2018-11-21T21:46:02.103Z,52.17
2018-11-21T21:48:51.766Z,51.07
2018-11-21T21:51:41.565Z,50.23
2018-11-21T21:54:31.497Z,52.60
2018-11-21T22:03:10.193Z,48.37
2018-11-21T22:11:26.336Z,60.80
2018-11-21T22:14:16.239Z,53.37
2018-11-21T22:17:06.810Z,55.00
2018-11-21T22:20:00.388Z,51.03
2018-11-21T22:22:31.780Z,56.13
2018-11-21T22:25:36.113Z,50.17
2018-11-21T22:28:08.554Z,52.80
2018-11-21T22:30:59.081Z,51.03
2018-11-21T22:33:48.755Z,49.13
2018-11-21T22:36:50.572Z,52.30
2018-11-21T22:39:21.052Z,50.43
2018-11-21T22:44:55.562Z,50.00
2018-11-21T22:51:02.477Z,54.93
2018-11-21T22:53:52.240Z,51.23
2018-11-21T22:56:42.122Z,52.53
2018-11-21T22:59:32.076Z,49.17
2018-11-21T23:05:04.669Z,50.37
2018-11-21T23:10:59.879Z,50.10
2018-11-21T23:19:14.153Z,53.57
2018-11-21T23:24:47.596Z,52.30
2018-11-21T23:27:38.111Z,51.70
2018-11-21T23:30:28.103Z,52.30
2018-11-21T23:33:18.218Z,51.77
2018-11-21T23:36:08.510Z,53.17
